createdAt,value
2022-08-14T00:02:13.763Z,4.00
2022-08-14T00:04:45.096Z,3.60
2022-08-14T00:07:13.946Z,4.03
2022-08-14T00:09:55.598Z,3.80
2022-08-14T00:12:34.025Z,4.25
2022-08-14T00:15:29.918Z,4.25
2022-08-14T00:18:06.712Z,3.83
2022-08-14T00:20:42.858Z,3.95
2022-08-14T00:23:16.423Z,4.93
2022-08-14T00:25:59.082Z,4.10
2022-08-14T00:28:36.727Z,4.20
2022-08-14T00:31:07.854Z,3.95
2022-08-14T00:33:52.559Z,4.68
2022-08-14T00:36:37.098Z,4.28
2022-08-14T00:39:15.112Z,4.10
2022-08-14T00:44:14.695Z,3.97
2022-08-14T00:46:49.516Z,4.80
2022-08-14T00:49:17.909Z,4.45
2022-08-14T00:51:48.294Z,4.25
2022-08-14T00:54:20.995Z,4.43
2022-08-14T00:56:50.623Z,4.07
2022-08-14T00:59:23.436Z,4.05
2022-08-14T01:01:54.855Z,5.03
2022-08-14T01:04:38.002Z,4.22
2022-08-14T01:07:11.335Z,4.32
2022-08-14T01:09:41.632Z,4.70
2022-08-14T01:12:09.506Z,4.50
2022-08-14T01:14:37.911Z,5.35
2022-08-14T01:17:08.927Z,4.07
2022-08-14T01:19:54.856Z,4.00
2022-08-14T01:22:21.847Z,4.50
2022-08-14T01:24:53.894Z,4.70
2022-08-14T01:27:24.097Z,4.13
2022-08-14T01:30:03.563Z,4.18
2022-08-14T01:32:35.542Z,4.32
2022-08-14T01:35:17.791Z,3.95
2022-08-14T01:37:58.018Z,5.07
2022-08-14T01:40:33.142Z,4.07
2022-08-14T01:43:14.537Z,4.22
2022-08-14T01:45:48.993Z,4.20
2022-08-14T01:48:25.814Z,4.13
2022-08-14T01:50:52.782Z,4.07
2022-08-14T01:53:20.715Z,4.60
2022-08-14T01:55:51.494Z,4.55
2022-08-14T01:58:21.099Z,4.93
2022-08-14T02:00:58.481Z,4.57
2022-08-14T02:03:31.402Z,4.25
2022-08-14T02:06:03.540Z,4.35
2022-08-14T02:08:53.433Z,5.43
2022-08-14T02:14:07.412Z,4.78
2022-08-14T02:16:41.628Z,5.03
2022-08-14T02:19:14.373Z,4.80
2022-08-14T02:21:48.958Z,4.82
2022-08-14T02:24:40.304Z,5.00
2022-08-14T02:28:23.589Z,5.07
2022-08-14T02:30:00.816Z,4.93
2022-08-14T02:32:36.565Z,5.10
2022-08-14T02:35:17.598Z,5.00
2022-08-14T02:37:49.889Z,5.10
2022-08-14T02:40:32.207Z,5.00
2022-08-14T02:43:05.547Z,5.13
2022-08-14T02:45:38.849Z,4.68
2022-08-14T02:49:03.797Z,4.88
2022-08-14T02:51:01.336Z,5.43
2022-08-14T02:53:31.471Z,5.85
2022-08-14T02:56:04.710Z,6.05
2022-08-14T02:58:52.810Z,5.82
2022-08-14T03:01:31.027Z,5.30
2022-08-14T03:03:59.933Z,5.78
2022-08-14T03:06:35.219Z,5.22
2022-08-14T03:09:14.710Z,5.03
2022-08-14T03:11:45.013Z,5.72
2022-08-14T03:14:15.531Z,5.18
2022-08-14T03:16:45.548Z,5.78
2022-08-14T03:19:17.874Z,5.80
2022-08-14T03:21:46.869Z,6.03
2022-08-14T03:24:23.244Z,5.80
2022-08-14T03:26:56.164Z,6.28
2022-08-14T03:29:26.326Z,5.80
2022-08-14T03:31:54.490Z,5.53
2022-08-14T03:34:24.703Z,5.50
2022-08-14T03:37:51.663Z,5.78
2022-08-14T03:39:59.391Z,7.03
2022-08-14T03:42:36.123Z,5.93
2022-08-14T03:45:19.012Z,6.07
2022-08-14T03:47:55.889Z,6.38
2022-08-14T03:50:31.088Z,5.78
2022-08-14T03:53:01.502Z,5.72
2022-08-14T03:55:30.486Z,5.72
2022-08-14T03:58:00.453Z,6.20
2022-08-14T04:00:43.737Z,6.00
2022-08-14T04:03:23.503Z,6.68
2022-08-14T04:05:51.387Z,5.95
2022-08-14T04:08:29.217Z,6.22
2022-08-14T04:11:00.955Z,5.85
2022-08-14T04:13:34.712Z,6.07
2022-08-14T04:16:12.303Z,5.20
2022-08-14T04:18:43.722Z,5.38
2022-08-14T04:21:12.866Z,6.35
2022-08-14T04:23:40.611Z,6.18
2022-08-14T04:26:14.523Z,6.63
2022-08-14T04:29:06.865Z,5.90
2022-08-14T04:33:02.971Z,7.57
2022-08-14T04:34:20.905Z,7.28
2022-08-14T04:37:12.949Z,6.97
2022-08-14T04:39:58.989Z,6.45
2022-08-14T04:42:47.381Z,6.43
2022-08-14T04:45:24.065Z,6.88
2022-08-14T04:48:12.570Z,7.40
2022-08-14T04:50:53.910Z,6.47
2022-08-14T04:53:35.015Z,6.43
2022-08-14T04:56:10.378Z,6.53
2022-08-14T04:58:39.083Z,7.35
2022-08-14T05:01:12.870Z,6.22
2022-08-14T05:03:45.042Z,5.85
2022-08-14T05:06:37.375Z,6.53
2022-08-14T05:09:00.992Z,7.13
2022-08-14T05:11:28.197Z,6.43
2022-08-14T05:14:16.650Z,6.72
2022-08-14T05:16:44.116Z,6.25
2022-08-14T05:19:25.280Z,6.78
2022-08-14T05:22:15.997Z,6.60
2022-08-14T05:24:48.780Z,6.32
2022-08-14T05:27:22.356Z,6.43
2022-08-14T05:29:57.151Z,6.38
2022-08-14T05:32:26.936Z,6.85
2022-08-14T05:34:58.128Z,6.55
2022-08-14T05:37:27.340Z,7.00
2022-08-14T05:39:56.313Z,7.68
2022-08-14T05:42:27.141Z,6.78
2022-08-14T05:44:58.741Z,6.60
2022-08-14T05:47:29.121Z,7.20
2022-08-14T05:50:02.677Z,7.10
2022-08-14T05:52:39.121Z,6.53
2022-08-14T05:55:13.783Z,7.00
2022-08-14T05:58:08.332Z,6.90
2022-08-14T06:00:42.692Z,6.35
2022-08-14T06:05:51.991Z,6.25
2022-08-14T06:08:36.222Z,6.88
2022-08-14T06:11:08.638Z,6.53
2022-08-14T06:13:44.516Z,7.50
2022-08-14T06:16:14.997Z,7.47
2022-08-14T06:18:48.646Z,8.27
2022-08-14T06:21:23.338Z,9.45
2022-08-14T06:23:50.776Z,10.20
2022-08-14T06:26:20.531Z,10.70
2022-08-14T06:28:52.335Z,9.63
2022-08-14T06:31:21.059Z,10.68
2022-08-14T06:35:11.157Z,10.60
2022-08-14T06:36:38.023Z,11.60
2022-08-14T06:39:08.130Z,9.98
2022-08-14T06:41:59.534Z,10.63
2022-08-14T06:44:32.282Z,11.30
2022-08-14T06:47:01.898Z,9.68
2022-08-14T06:49:30.424Z,10.23
2022-08-14T06:51:57.787Z,10.25
2022-08-14T06:54:31.368Z,10.52
2022-08-14T06:56:59.212Z,10.02
2022-08-14T06:59:29.277Z,10.90
2022-08-14T07:02:17.787Z,11.05
2022-08-14T07:05:06.198Z,9.82
2022-08-14T07:07:42.656Z,10.82
2022-08-14T07:10:17.050Z,9.75
2022-08-14T07:13:02.141Z,9.60
2022-08-14T07:15:34.270Z,10.60
2022-08-14T07:18:09.363Z,10.45
2022-08-14T07:20:36.980Z,10.48
2022-08-14T07:23:09.289Z,8.75
2022-08-14T07:25:47.323Z,9.93
2022-08-14T07:28:26.958Z,8.27
2022-08-14T07:31:04.655Z,7.15
2022-08-14T07:33:43.599Z,7.63
2022-08-14T07:36:27.449Z,7.22
2022-08-14T07:39:00.809Z,5.32
2022-08-14T07:41:34.041Z,6.68
2022-08-14T07:44:32.725Z,6.25
2022-08-14T07:46:50.667Z,6.88
2022-08-14T07:49:18.775Z,6.55
2022-08-14T07:51:49.252Z,5.65
2022-08-14T07:54:23.420Z,6.22
2022-08-14T07:57:06.308Z,6.63
2022-08-14T07:59:40.864Z,6.50
2022-08-14T08:02:17.404Z,7.43
2022-08-14T08:04:59.239Z,5.53
2022-08-14T08:07:30.968Z,5.75
2022-08-14T08:10:00.889Z,6.15
2022-08-14T08:12:30.830Z,6.30
2022-08-14T08:15:02.624Z,5.57
2022-08-14T08:17:35.023Z,6.13
2022-08-14T08:20:11.454Z,5.95
2022-08-14T08:22:48.438Z,5.53
2022-08-14T08:25:24.696Z,5.65
2022-08-14T08:28:08.897Z,5.65
2022-08-14T08:31:03.476Z,6.00
2022-08-14T08:33:37.243Z,5.40
2022-08-14T08:36:12.663Z,5.70
2022-08-14T08:39:17.002Z,5.57
2022-08-14T08:41:27.996Z,5.18
2022-08-14T08:44:05.633Z,5.13
2022-08-14T08:46:33.200Z,6.07
2022-08-14T08:51:42.883Z,5.55
2022-08-14T08:54:18.362Z,5.93
2022-08-14T08:56:52.422Z,4.88
2022-08-14T08:59:34.215Z,5.80
2022-08-14T09:02:10.603Z,5.38
2022-08-14T09:04:52.848Z,5.28
2022-08-14T09:07:27.214Z,5.57
2022-08-14T09:09:59.120Z,4.57
2022-08-14T09:12:31.623Z,4.63
2022-08-14T09:15:11.958Z,5.78
2022-08-14T09:17:44.101Z,5.20
2022-08-14T09:20:12.838Z,5.15
2022-08-14T09:22:42.549Z,4.90
2022-08-14T09:25:17.364Z,4.45
2022-08-14T09:27:47.738Z,5.13
2022-08-14T09:30:32.404Z,4.95
2022-08-14T09:33:07.565Z,4.85
2022-08-14T09:35:56.500Z,5.35
2022-08-14T09:38:47.894Z,4.93
2022-08-14T09:42:21.191Z,4.90
2022-08-14T09:44:46.104Z,4.55
2022-08-14T09:47:17.244Z,4.38
2022-08-14T09:49:52.208Z,5.07
2022-08-14T09:52:33.485Z,3.92
2022-08-14T09:55:02.604Z,4.30
2022-08-14T09:57:31.465Z,4.20
2022-08-14T10:00:11.979Z,4.72
2022-08-14T10:03:05.342Z,4.78
2022-08-14T10:05:39.236Z,4.22
2022-08-14T10:08:22.010Z,5.00
2022-08-14T10:10:57.188Z,5.63
2022-08-14T10:13:37.128Z,4.07
2022-08-14T10:16:21.883Z,4.93
2022-08-14T10:19:16.075Z,4.63
2022-08-14T10:23:12.782Z,4.90
2022-08-14T10:25:15.960Z,4.40
2022-08-14T10:27:51.072Z,4.30
2022-08-14T10:30:25.744Z,4.55
2022-08-14T10:32:55.467Z,4.13
2022-08-14T10:35:23.372Z,3.88
2022-08-14T10:38:00.885Z,4.38
2022-08-14T10:40:36.969Z,4.50
2022-08-14T10:43:26.842Z,3.90
2022-08-14T10:46:21.645Z,4.43
2022-08-14T10:49:02.779Z,4.40
2022-08-14T10:51:41.616Z,4.68
2022-08-14T10:54:35.090Z,4.63
2022-08-14T10:57:27.616Z,4.03
2022-08-14T10:59:59.067Z,3.78
2022-08-14T11:02:54.206Z,3.70
2022-08-14T11:05:26.361Z,3.80
2022-08-14T11:08:00.738Z,3.80
2022-08-14T11:10:52.738Z,3.55
2022-08-14T11:13:27.344Z,3.28
2022-08-14T11:16:00.508Z,3.38
2022-08-14T11:18:36.075Z,3.90
2022-08-14T11:21:08.069Z,3.15
2022-08-14T11:23:40.942Z,3.40
2022-08-14T11:26:11.585Z,4.07
2022-08-14T11:28:47.731Z,4.10
2022-08-14T11:31:23.215Z,3.85
2022-08-14T11:33:57.593Z,4.25
2022-08-14T11:36:57.201Z,3.78
2022-08-14T11:39:34.842Z,4.10
2022-08-14T11:42:58.142Z,3.80
2022-08-14T11:45:11.219Z,4.13
2022-08-14T11:48:13.003Z,3.67
2022-08-14T11:50:37.719Z,4.05
2022-08-14T11:53:08.523Z,4.00
2022-08-14T11:55:39.230Z,3.92
2022-08-14T11:58:11.136Z,4.05
2022-08-14T12:00:54.259Z,4.55
2022-08-14T12:03:37.347Z,4.20
2022-08-14T12:06:29.125Z,3.55
2022-08-14T12:09:00.722Z,3.63
2022-08-14T12:11:43.328Z,3.88
2022-08-14T12:14:13.607Z,3.70
2022-08-14T12:17:00.582Z,3.70
2022-08-14T12:19:33.656Z,3.70
2022-08-14T12:22:02.996Z,3.60
2022-08-14T12:24:36.849Z,3.63
2022-08-14T12:27:07.224Z,3.60
2022-08-14T12:29:34.765Z,4.53
2022-08-14T12:32:08.754Z,3.60
2022-08-14T12:34:37.454Z,4.50
2022-08-14T12:37:09.148Z,3.30
2022-08-14T12:39:40.262Z,3.50
2022-08-14T12:42:09.410Z,3.50
2022-08-14T12:44:43.907Z,3.55
2022-08-14T12:47:17.158Z,3.53
2022-08-14T12:49:52.604Z,3.30
2022-08-14T12:52:55.948Z,3.10
2022-08-14T12:55:32.673Z,2.63
2022-08-14T12:58:35.073Z,3.00
2022-08-14T13:01:17.126Z,3.55
2022-08-14T13:03:45.970Z,3.88
2022-08-14T13:06:14.718Z,3.83
2022-08-14T13:08:52.699Z,3.45
2022-08-14T13:11:24.291Z,3.67
2022-08-14T13:13:58.971Z,3.15
2022-08-14T13:19:02.634Z,2.90
2022-08-14T13:21:31.205Z,3.13
2022-08-14T13:24:27.557Z,3.40
2022-08-14T13:26:58.562Z,3.60
2022-08-14T13:29:29.651Z,3.35
2022-08-14T13:31:59.811Z,3.53
2022-08-14T13:34:29.308Z,3.08
2022-08-14T13:37:03.855Z,3.10
2022-08-14T13:39:36.327Z,3.20
2022-08-14T13:42:10.999Z,3.03
2022-08-14T13:44:42.907Z,2.88
2022-08-14T13:47:12.089Z,3.38
2022-08-14T13:49:57.395Z,3.60
2022-08-14T13:52:51.285Z,3.55
2022-08-14T13:55:18.417Z,3.60
2022-08-14T13:57:56.839Z,3.05
2022-08-14T14:00:35.699Z,3.10
2022-08-14T14:03:08.721Z,3.17
2022-08-14T14:05:52.312Z,3.20
2022-08-14T14:08:45.599Z,3.20
2022-08-14T14:11:10.551Z,2.90
2022-08-14T14:13:44.760Z,3.35
2022-08-14T14:16:15.242Z,3.08
2022-08-14T14:18:55.775Z,2.88
2022-08-14T14:21:28.462Z,3.00
2022-08-14T14:23:57.121Z,2.83
2022-08-14T14:26:24.899Z,3.38
2022-08-14T14:28:57.140Z,2.75
2022-08-14T14:31:30.241Z,3.33
2022-08-14T14:34:07.399Z,2.83
2022-08-14T14:36:44.479Z,2.97
2022-08-14T14:39:21.117Z,2.85
2022-08-14T14:41:56.151Z,2.90
2022-08-14T14:44:33.370Z,3.60
2022-08-14T14:47:01.188Z,3.40
2022-08-14T14:49:42.038Z,2.80
2022-08-14T14:52:26.647Z,2.75
2022-08-14T14:54:58.779Z,3.05
2022-08-14T14:57:35.042Z,3.30
2022-08-14T15:00:19.348Z,3.47
2022-08-14T15:02:59.399Z,3.40
2022-08-14T15:05:28.208Z,2.97
2022-08-14T15:07:55.603Z,2.85
2022-08-14T15:10:28.055Z,3.13
2022-08-14T15:13:04.203Z,3.35
2022-08-14T15:15:36.865Z,2.90
2022-08-14T15:18:35.839Z,3.38
2022-08-14T15:20:57.513Z,3.40
2022-08-14T15:23:25.412Z,2.70
2022-08-14T15:26:13.389Z,3.85
2022-08-14T15:29:02.742Z,3.00
2022-08-14T15:31:34.900Z,3.58
2022-08-14T15:34:43.172Z,3.10
2022-08-14T15:37:12.770Z,3.15
2022-08-14T15:39:42.340Z,3.50
2022-08-14T15:42:14.384Z,3.22
2022-08-14T15:44:44.744Z,3.30
2022-08-14T15:47:28.057Z,2.63
2022-08-14T15:49:59.577Z,3.28
2022-08-14T15:52:35.347Z,3.30
2022-08-14T15:55:09.077Z,3.15
2022-08-14T15:57:37.518Z,3.05
2022-08-14T16:00:40.922Z,3.42
2022-08-14T16:03:15.901Z,3.13
2022-08-14T16:05:45.996Z,3.08
2022-08-14T16:08:27.148Z,3.45
2022-08-14T16:11:03.655Z,3.10
2022-08-14T16:13:52.024Z,2.45
2022-08-14T16:16:47.585Z,2.92
2022-08-14T16:19:19.868Z,2.92
2022-08-14T16:22:02.007Z,2.63
2022-08-14T16:24:59.860Z,3.20
2022-08-14T16:27:38.951Z,2.75
2022-08-14T16:30:20.527Z,2.70
2022-08-14T16:32:56.556Z,3.40
2022-08-14T16:35:42.671Z,2.58
2022-08-14T16:38:45.517Z,3.05
2022-08-14T16:41:28.562Z,3.33
2022-08-14T16:44:22.048Z,3.40
2022-08-14T16:46:57.433Z,2.85
2022-08-14T16:49:35.237Z,3.10
2022-08-14T16:52:26.383Z,3.05
2022-08-14T16:55:08.914Z,2.72
2022-08-14T16:57:51.854Z,2.92
2022-08-14T17:00:33.074Z,3.13
2022-08-14T17:03:11.740Z,2.80
2022-08-14T17:05:43.817Z,2.75
2022-08-14T17:08:31.672Z,3.88
2022-08-14T17:11:04.831Z,3.13
2022-08-14T17:13:59.065Z,3.05
2022-08-14T17:16:35.920Z,3.35
2022-08-14T17:19:09.824Z,3.90
2022-08-14T17:21:42.099Z,3.03
2022-08-14T17:24:56.933Z,2.97
2022-08-14T17:29:56.614Z,3.28
2022-08-14T17:32:44.071Z,3.40
2022-08-14T17:35:16.579Z,3.90
2022-08-14T17:37:55.775Z,3.70
2022-08-14T17:40:29.686Z,3.90
2022-08-14T17:43:01.886Z,3.88
2022-08-14T17:45:41.007Z,3.47
2022-08-14T17:49:16.302Z,3.17
2022-08-14T17:51:14.481Z,3.13
2022-08-14T17:53:53.310Z,3.63
2022-08-14T17:56:28.967Z,3.40
2022-08-14T17:59:05.009Z,3.60
2022-08-14T18:01:38.953Z,4.13
2022-08-14T18:04:24.989Z,3.78
2022-08-14T18:07:16.869Z,3.63
2022-08-14T18:09:57.527Z,4.03
2022-08-14T18:12:36.872Z,3.70
2022-08-14T18:15:14.637Z,3.97
2022-08-14T18:17:52.502Z,3.78
2022-08-14T18:21:41.537Z,4.00
2022-08-14T18:23:13.470Z,3.33
2022-08-14T18:25:49.147Z,3.72
2022-08-14T18:28:48.105Z,3.88
2022-08-14T18:31:42.119Z,4.90
2022-08-14T18:34:32.322Z,4.20
2022-08-14T18:37:14.250Z,5.40
2022-08-14T18:40:02.062Z,4.47
2022-08-14T18:42:34.937Z,4.32
2022-08-14T18:45:12.833Z,4.95
2022-08-14T18:50:32.451Z,4.95
2022-08-14T18:53:10.635Z,3.97
2022-08-14T18:55:52.953Z,4.88
2022-08-14T18:58:57.246Z,4.85
2022-08-14T19:01:30.352Z,4.85
2022-08-14T19:04:01.323Z,4.32
2022-08-14T19:06:42.988Z,4.03
2022-08-14T19:09:58.950Z,4.18
2022-08-14T19:12:53.443Z,4.22
2022-08-14T19:15:27.361Z,3.97
2022-08-14T19:18:14.089Z,4.45
2022-08-14T19:20:49.031Z,4.10
2022-08-14T19:23:43.167Z,4.70
2022-08-14T19:26:36.674Z,5.03
2022-08-14T19:29:38.072Z,5.20
2022-08-14T19:32:39.428Z,4.82
2022-08-14T19:35:49.064Z,4.95
2022-08-14T19:38:54.564Z,4.70
2022-08-14T19:41:51.871Z,5.32
2022-08-14T19:44:31.550Z,4.63
2022-08-14T19:47:04.781Z,5.32
2022-08-14T19:50:24.659Z,5.45
2022-08-14T19:52:37.197Z,5.05
2022-08-14T19:55:18.791Z,6.22
2022-08-14T19:57:46.314Z,5.22
2022-08-14T20:00:29.510Z,5.97
2022-08-14T20:03:11.923Z,6.03
2022-08-14T20:05:45.390Z,6.35
2022-08-14T20:10:59.917Z,6.30
2022-08-14T20:11:16.025Z,5.40
2022-08-14T20:14:10.172Z,5.80
2022-08-14T20:17:05.922Z,6.25
2022-08-14T20:22:37.555Z,6.28
2022-08-14T20:24:54.175Z,6.13
2022-08-14T20:27:33.236Z,6.22
2022-08-14T20:30:29.929Z,6.15
2022-08-14T20:33:07.640Z,7.05
2022-08-14T20:35:52.124Z,6.05
2022-08-14T20:38:30.501Z,6.80
2022-08-14T20:41:10.781Z,6.38
2022-08-14T20:44:00.793Z,6.30
2022-08-14T20:46:39.399Z,6.18
2022-08-14T20:49:19.153Z,6.10
2022-08-14T20:52:00.169Z,6.28
2022-08-14T20:54:36.833Z,6.22
2022-08-14T20:57:18.627Z,6.88
2022-08-14T20:59:57.527Z,6.65
2022-08-14T21:02:46.284Z,6.85
2022-08-14T21:05:22.569Z,6.10
2022-08-14T21:08:09.995Z,6.82
2022-08-14T21:10:53.009Z,6.57
2022-08-14T21:13:27.734Z,6.65
2022-08-14T21:16:34.409Z,6.35
2022-08-14T21:19:00.106Z,6.97
2022-08-14T21:21:40.763Z,6.47
2022-08-14T21:24:38.914Z,6.82
2022-08-14T21:27:13.090Z,7.00
2022-08-14T21:29:53.866Z,6.43
2022-08-14T21:32:34.989Z,6.95
2022-08-14T21:35:08.310Z,6.47
2022-08-14T21:37:44.087Z,6.40
2022-08-14T21:40:40.788Z,6.55
2022-08-14T21:43:02.058Z,7.22
2022-08-14T21:45:35.439Z,6.88
2022-08-14T21:48:10.867Z,6.95
2022-08-14T21:51:00.127Z,6.93
2022-08-14T21:53:32.880Z,7.60
2022-08-14T21:56:03.273Z,6.70
2022-08-14T21:58:52.672Z,7.20
2022-08-14T22:01:19.437Z,6.38
2022-08-14T22:03:54.966Z,7.32
2022-08-14T22:06:28.941Z,7.35
2022-08-14T22:08:58.224Z,7.40
2022-08-14T22:11:27.478Z,7.60
2022-08-14T22:13:55.983Z,6.95
2022-08-14T22:17:03.274Z,7.85
2022-08-14T22:19:15.572Z,7.88
2022-08-14T22:21:46.570Z,7.30
2022-08-14T22:24:38.352Z,7.80
2022-08-14T22:27:05.098Z,7.60
2022-08-14T22:29:34.720Z,7.80
2022-08-14T22:32:07.143Z,7.45
2022-08-14T22:34:34.657Z,7.50
2022-08-14T22:37:02.221Z,7.30
2022-08-14T22:40:17.430Z,8.00
2022-08-14T22:42:22.655Z,7.93
2022-08-14T22:44:51.903Z,7.28
2022-08-14T22:47:24.783Z,7.47
2022-08-14T22:50:30.506Z,7.80
2022-08-14T22:52:40.493Z,7.78
2022-08-14T22:55:17.590Z,7.70
2022-08-14T22:57:44.678Z,7.47
2022-08-14T23:00:25.466Z,7.88
2022-08-14T23:03:01.653Z,7.38
2022-08-14T23:05:38.799Z,7.35
2022-08-14T23:08:59.256Z,7.35
2022-08-14T23:11:01.831Z,7.78
2022-08-14T23:13:30.714Z,7.95
2022-08-14T23:15:59.104Z,7.70
2022-08-14T23:18:29.428Z,7.53
2022-08-14T23:20:57.373Z,7.85
2022-08-14T23:23:24.713Z,7.85
2022-08-14T23:25:58.366Z,7.78
2022-08-14T23:28:34.736Z,7.50
2022-08-14T23:31:34.285Z,8.23
2022-08-14T23:36:53.462Z,7.53
2022-08-14T23:39:30.000Z,7.13
2022-08-14T23:42:04.923Z,7.47
2022-08-14T23:44:34.980Z,7.23
2022-08-14T23:47:11.693Z,6.95
2022-08-14T23:50:00.946Z,6.70
2022-08-14T23:52:51.233Z,7.70
2022-08-14T23:55:30.659Z,8.07
2022-08-14T23:58:00.727Z,6.95
